createdAt,value
2019-01-18T00:01:26.528Z,92.51
2019-01-18T00:04:16.731Z,91.37
2019-01-18T00:07:06.675Z,90.71
2019-01-18T00:09:56.050Z,90.27
2019-01-18T00:12:47.943Z,90.91
2019-01-18T00:15:38.710Z,92.75
2019-01-18T00:18:28.105Z,94.40
2019-01-18T00:21:17.988Z,94.92
2019-01-18T00:24:12.804Z,94.75
2019-01-18T00:27:02.611Z,94.21
2019-01-18T00:29:51.992Z,93.96
2019-01-18T00:32:41.861Z,93.03
2019-01-18T00:35:30.849Z,92.74
2019-01-18T00:38:20.709Z,93.08
2019-01-18T00:41:10.316Z,93.07
2019-01-18T00:43:59.152Z,92.55
2019-01-18T00:46:48.528Z,91.17
2019-01-18T00:49:38.567Z,90.84
2019-01-18T00:52:29.940Z,91.20
2019-01-18T00:55:27.933Z,91.86
2019-01-18T00:58:16.959Z,91.92
2019-01-18T01:01:08.510Z,92.06
2019-01-18T01:03:58.023Z,92.12
2019-01-18T01:06:47.411Z,92.12
2019-01-18T01:09:36.992Z,91.97
2019-01-18T01:12:30.323Z,91.66
2019-01-18T01:15:22.254Z,91.52
2019-01-18T01:18:11.631Z,94.32
2019-01-18T01:21:01.625Z,95.90
2019-01-18T01:23:51.361Z,95.53
2019-01-18T01:26:41.117Z,95.53
2019-01-18T01:29:30.715Z,95.45
2019-01-18T01:32:20.091Z,94.90
2019-01-18T01:35:10.392Z,94.45
2019-01-18T01:38:00.228Z,94.08
2019-01-18T01:40:50.063Z,91.60
2019-01-18T01:43:40.185Z,90.05
2019-01-18T01:46:29.826Z,89.49
2019-01-18T01:49:19.483Z,89.33
2019-01-18T01:52:12.266Z,92.41
2019-01-18T01:55:02.233Z,93.65
2019-01-18T01:57:52.350Z,93.65
2019-01-18T02:00:42.554Z,95.12
2019-01-18T02:03:32.894Z,96.18
2019-01-18T02:06:22.513Z,95.80
2019-01-18T02:09:12.436Z,95.24
2019-01-18T02:12:01.546Z,95.08
2019-01-18T02:14:52.278Z,94.63
2019-01-18T02:17:41.860Z,94.82
2019-01-18T02:20:31.830Z,95.77
2019-01-18T02:23:20.665Z,95.77
2019-01-18T02:26:10.307Z,95.15
2019-01-18T02:29:00.131Z,94.61
2019-01-18T02:31:50.204Z,95.31
2019-01-18T02:34:40.332Z,96.29
2019-01-18T02:37:29.235Z,96.18
2019-01-18T02:40:19.003Z,95.58
2019-01-18T02:43:09.341Z,95.58
2019-01-18T02:45:59.675Z,95.13
2019-01-18T02:48:49.644Z,94.95
2019-01-18T02:51:40.877Z,95.95
2019-01-18T02:54:30.590Z,95.46
2019-01-18T02:57:20.675Z,95.25
2019-01-18T03:00:16.064Z,93.83
2019-01-18T03:03:06.320Z,94.39
2019-01-18T03:06:00.014Z,94.41
2019-01-18T03:08:52.831Z,93.69
2019-01-18T03:11:41.946Z,93.15
2019-01-18T03:14:31.427Z,93.19
2019-01-18T03:17:21.181Z,92.54
2019-01-18T03:20:13.048Z,91.92
2019-01-18T03:23:02.934Z,94.29
2019-01-18T03:25:55.732Z,95.42
2019-01-18T03:28:45.051Z,96.00
2019-01-18T03:31:34.984Z,95.85
2019-01-18T03:34:24.850Z,95.45
2019-01-18T03:37:14.261Z,95.19
2019-01-18T03:40:05.667Z,96.75
2019-01-18T03:42:55.718Z,97.36
2019-01-18T03:45:45.065Z,97.89
2019-01-18T03:48:34.495Z,98.08
2019-01-18T03:51:24.654Z,99.44
2019-01-18T03:54:14.077Z,100.00
2019-01-18T04:00:40.680Z,100.00
2019-01-18T04:03:30.001Z,100.00
2019-01-18T04:06:19.385Z,100.00
2019-01-18T04:09:09.582Z,100.00
2019-01-18T04:11:58.832Z,100.00
2019-01-18T04:14:48.922Z,100.00
2019-01-18T04:17:38.456Z,100.00
2019-01-18T04:20:28.247Z,100.00
2019-01-18T04:23:18.556Z,99.81
2019-01-18T04:26:08.566Z,98.79
2019-01-18T04:28:59.710Z,97.89
2019-01-18T04:31:49.432Z,96.56
2019-01-18T04:34:40.244Z,95.58
2019-01-18T04:37:31.754Z,95.61
2019-01-18T04:40:24.555Z,94.53
2019-01-18T04:43:14.307Z,93.86
2019-01-18T04:46:03.836Z,92.53
2019-01-18T04:48:53.813Z,92.69
2019-01-18T04:51:43.380Z,92.74
2019-01-18T04:54:32.761Z,92.52
2019-01-18T04:57:22.750Z,92.23
2019-01-18T05:00:18.337Z,91.00
2019-01-18T05:03:07.743Z,91.00
2019-01-18T05:05:57.138Z,88.81
2019-01-18T05:08:47.255Z,89.65
2019-01-18T05:11:36.993Z,92.46
2019-01-18T05:14:26.063Z,94.67
2019-01-18T05:17:17.289Z,91.73
2019-01-18T05:20:10.607Z,91.76
2019-01-18T05:23:00.451Z,91.82
2019-01-18T05:25:49.952Z,92.98
2019-01-18T05:29:16.625Z,94.64
2019-01-18T05:32:08.665Z,95.30
2019-01-18T05:35:02.329Z,95.70
2019-01-18T05:37:52.191Z,95.64
2019-01-18T05:40:41.809Z,95.65
2019-01-18T05:43:31.182Z,96.29
2019-01-18T05:46:20.726Z,97.48
2019-01-18T05:49:09.635Z,98.30
2019-01-18T05:51:59.206Z,98.31
2019-01-18T05:54:48.604Z,99.19
2019-01-18T05:57:39.000Z,99.34
2019-01-18T06:00:55.404Z,100.00
2019-01-18T06:03:42.482Z,100.00
2019-01-18T06:06:31.655Z,100.00
2019-01-18T06:09:21.550Z,100.00
2019-01-18T06:12:11.067Z,100.00
2019-01-18T06:15:00.638Z,100.00
2019-01-18T06:17:50.550Z,100.00
2019-01-18T06:20:39.962Z,100.00
2019-01-18T06:23:29.325Z,100.00
2019-01-18T06:26:18.767Z,100.00
2019-01-18T06:29:08.629Z,100.00
2019-01-18T06:31:59.007Z,100.00
2019-01-18T06:34:49.365Z,100.00
2019-01-18T06:37:38.619Z,100.00
2019-01-18T06:40:28.127Z,100.00
2019-01-18T06:43:17.432Z,100.00
2019-01-18T06:46:07.212Z,100.00
2019-01-18T06:48:57.042Z,99.86
2019-01-18T06:51:46.372Z,99.50
2019-01-18T06:54:35.907Z,100.00
2019-01-18T06:57:25.466Z,100.00
2019-01-18T07:00:34.960Z,100.00
2019-01-18T07:03:24.555Z,100.00
2019-01-18T07:06:14.434Z,100.00
2019-01-18T07:09:06.099Z,100.00
2019-01-18T07:11:55.416Z,100.00
2019-01-18T07:14:45.607Z,100.00
2019-01-18T07:17:35.146Z,100.00
2019-01-18T07:20:25.569Z,100.00
2019-01-18T07:23:15.396Z,100.00
2019-01-18T07:26:05.585Z,100.00
2019-01-18T07:28:55.069Z,100.00
2019-01-18T07:31:44.523Z,96.83
2019-01-18T07:34:35.156Z,96.83
2019-01-18T07:37:24.845Z,96.42
2019-01-18T07:40:14.808Z,95.49
2019-01-18T07:43:05.090Z,96.04
2019-01-18T07:45:54.701Z,96.40
2019-01-18T07:48:44.676Z,95.02
2019-01-18T07:51:37.107Z,94.02
2019-01-18T07:54:26.050Z,92.94
2019-01-18T07:57:15.676Z,92.16
2019-01-18T08:00:08.573Z,92.08
2019-01-18T08:02:58.242Z,91.71
2019-01-18T08:05:47.951Z,88.95
2019-01-18T08:08:38.576Z,87.33
2019-01-18T08:11:28.358Z,85.31
2019-01-18T08:14:17.518Z,85.08
2019-01-18T08:17:07.194Z,84.53
2019-01-18T08:19:56.838Z,83.54
2019-01-18T08:22:46.652Z,82.17
2019-01-18T08:25:35.746Z,82.68
2019-01-18T08:28:25.425Z,85.77
2019-01-18T08:31:14.750Z,83.20
2019-01-18T08:34:05.119Z,80.54
2019-01-18T08:36:56.724Z,79.55
2019-01-18T08:39:46.918Z,78.74
2019-01-18T08:42:36.550Z,78.81
2019-01-18T08:45:34.846Z,78.96
2019-01-18T08:48:24.252Z,79.92
2019-01-18T08:51:13.587Z,79.22
2019-01-18T08:54:03.664Z,78.28
2019-01-18T08:56:52.980Z,76.75
2019-01-18T08:59:42.543Z,76.71
2019-01-18T09:02:31.364Z,77.69
2019-01-18T09:05:22.576Z,76.99
2019-01-18T09:08:12.341Z,78.00
2019-01-18T09:11:01.869Z,80.47
2019-01-18T09:13:55.106Z,81.64
2019-01-18T09:16:44.588Z,83.19
2019-01-18T09:19:34.508Z,82.47
2019-01-18T09:22:24.354Z,80.40
2019-01-18T09:25:13.792Z,82.24
2019-01-18T09:28:03.422Z,84.60
2019-01-18T09:30:53.162Z,84.01
2019-01-18T09:33:42.944Z,84.15
2019-01-18T09:36:32.529Z,83.48
2019-01-18T09:39:21.578Z,80.96
2019-01-18T09:42:11.787Z,78.77
2019-01-18T09:45:01.415Z,77.37
2019-01-18T09:47:51.341Z,79.73
2019-01-18T09:50:41.879Z,81.19
2019-01-18T09:53:31.828Z,81.83
2019-01-18T09:56:21.092Z,80.93
2019-01-18T09:59:10.173Z,80.44
2019-01-18T10:01:59.605Z,80.77
2019-01-18T10:04:49.024Z,80.83
2019-01-18T10:07:38.855Z,80.94
2019-01-18T10:10:29.013Z,83.54
2019-01-18T10:13:18.200Z,84.83
2019-01-18T10:16:07.732Z,83.04
2019-01-18T10:18:58.538Z,81.98
2019-01-18T10:21:48.827Z,82.55
2019-01-18T10:24:38.074Z,81.93
2019-01-18T10:27:27.454Z,80.02
2019-01-18T10:30:19.315Z,77.56
2019-01-18T10:33:08.188Z,77.01
2019-01-18T10:35:57.946Z,76.18
2019-01-18T10:38:48.971Z,76.68
2019-01-18T10:41:41.083Z,76.35
2019-01-18T10:44:30.696Z,75.90
2019-01-18T10:47:20.183Z,75.52
2019-01-18T10:50:13.273Z,74.40
2019-01-18T10:53:02.921Z,74.17
2019-01-18T10:55:53.487Z,72.25
2019-01-18T10:58:43.802Z,71.60
2019-01-18T11:01:34.061Z,71.30
2019-01-18T11:04:23.223Z,70.98
2019-01-18T11:07:13.352Z,71.39
2019-01-18T11:10:02.868Z,74.19
2019-01-18T11:12:52.373Z,73.17
2019-01-18T11:15:43.522Z,72.55
2019-01-18T11:18:32.200Z,73.42
2019-01-18T11:21:23.053Z,74.86
2019-01-18T11:24:12.871Z,75.01
2019-01-18T11:27:01.810Z,74.00
2019-01-18T11:29:51.348Z,71.75
2019-01-18T11:32:41.404Z,71.76
2019-01-18T11:35:30.998Z,72.28
2019-01-18T11:38:20.860Z,74.70
2019-01-18T11:41:10.906Z,75.54
2019-01-18T11:44:00.798Z,75.87
2019-01-18T11:46:50.217Z,76.92
2019-01-18T11:49:39.655Z,76.90
2019-01-18T11:52:30.113Z,77.39
2019-01-18T11:55:20.020Z,77.14
2019-01-18T11:58:09.463Z,75.63
2019-01-18T12:00:59.357Z,77.43
2019-01-18T12:03:48.666Z,75.56
2019-01-18T12:06:37.803Z,75.28
2019-01-18T12:09:27.301Z,73.11
2019-01-18T12:12:17.141Z,71.46
2019-01-18T12:15:07.828Z,69.87
2019-01-18T12:17:59.376Z,67.63
2019-01-18T12:20:49.908Z,65.60
2019-01-18T12:23:39.338Z,66.56
2019-01-18T12:26:29.082Z,64.31
2019-01-18T12:29:18.757Z,65.38
2019-01-18T12:32:08.258Z,64.37
2019-01-18T12:34:57.606Z,64.23
2019-01-18T12:37:47.900Z,64.87
2019-01-18T12:40:37.207Z,61.32
2019-01-18T12:43:26.772Z,62.73
2019-01-18T12:46:16.920Z,60.86
2019-01-18T12:49:06.710Z,61.14
2019-01-18T12:51:55.847Z,59.92
2019-01-18T12:54:45.675Z,62.52
2019-01-18T12:57:35.521Z,63.02
2019-01-18T13:00:26.190Z,61.07
2019-01-18T13:03:15.587Z,61.42
2019-01-18T13:06:05.339Z,60.74
2019-01-18T13:08:54.511Z,60.37
2019-01-18T13:11:44.692Z,58.21
2019-01-18T13:14:34.173Z,57.44
2019-01-18T13:17:23.142Z,56.91
2019-01-18T13:20:13.881Z,55.72
2019-01-18T13:23:03.542Z,57.53
2019-01-18T13:25:54.001Z,58.95
2019-01-18T13:28:25.157Z,58.19
2019-01-18T13:30:56.452Z,61.29
2019-01-18T13:33:27.549Z,61.98
2019-01-18T13:36:01.774Z,61.68
2019-01-18T13:38:33.875Z,61.70
2019-01-18T13:41:04.820Z,58.85
2019-01-18T13:43:40.246Z,58.06
2019-01-18T13:46:11.798Z,59.22
2019-01-18T13:48:43.208Z,59.08
2019-01-18T13:51:14.578Z,58.69
2019-01-18T13:53:45.533Z,57.32
2019-01-18T13:56:16.504Z,59.77
2019-01-18T13:58:47.989Z,61.71
2019-01-18T14:01:19.885Z,63.69
2019-01-18T14:03:50.885Z,64.42
2019-01-18T14:06:21.823Z,65.43
2019-01-18T14:08:52.803Z,66.42
2019-01-18T14:11:24.238Z,66.74
2019-01-18T14:13:55.702Z,66.12
2019-01-18T14:16:27.677Z,63.76
2019-01-18T14:18:59.513Z,65.56
2019-01-18T14:21:31.374Z,65.40
2019-01-18T14:24:02.408Z,66.44
2019-01-18T14:26:33.916Z,66.86
2019-01-18T14:29:05.077Z,67.42
2019-01-18T14:31:36.473Z,67.01
2019-01-18T14:34:07.642Z,68.26
2019-01-18T14:36:39.030Z,68.22
2019-01-18T14:39:11.599Z,69.25
2019-01-18T14:41:43.566Z,70.46
2019-01-18T14:44:14.837Z,70.81
2019-01-18T14:46:45.987Z,70.34
2019-01-18T14:49:17.429Z,71.52
2019-01-18T14:51:49.162Z,72.83
2019-01-18T14:54:20.189Z,74.68
2019-01-18T14:56:51.817Z,74.57
2019-01-18T14:59:22.943Z,74.34
2019-01-18T15:01:54.575Z,75.77
2019-01-18T15:04:26.090Z,76.42
2019-01-18T15:06:57.218Z,77.87
2019-01-18T15:09:28.222Z,77.26
2019-01-18T15:11:59.655Z,77.34
2019-01-18T15:14:31.006Z,77.59
2019-01-18T15:17:03.764Z,79.13
2019-01-18T15:19:35.033Z,78.75
2019-01-18T15:22:06.352Z,78.82
2019-01-18T15:24:37.460Z,80.06
2019-01-18T15:27:08.523Z,78.76
2019-01-18T15:29:39.625Z,79.19
2019-01-18T15:32:11.169Z,79.96
2019-01-18T15:34:42.092Z,80.72
2019-01-18T15:37:13.343Z,81.21
2019-01-18T15:39:44.429Z,81.84
2019-01-18T15:42:18.270Z,82.29
2019-01-18T15:44:49.353Z,82.16
2019-01-18T15:47:20.415Z,81.76
2019-01-18T15:49:51.465Z,82.93
2019-01-18T15:52:23.026Z,84.65
2019-01-18T15:54:54.011Z,84.88
2019-01-18T15:57:25.105Z,85.42
2019-01-18T16:00:02.664Z,86.13
2019-01-18T16:02:34.137Z,86.95
2019-01-18T16:05:06.551Z,87.52
2019-01-18T16:07:37.695Z,87.59
2019-01-18T16:10:10.109Z,87.69
2019-01-18T16:12:44.070Z,87.85
2019-01-18T16:15:15.846Z,87.25
2019-01-18T16:17:47.766Z,85.43
2019-01-18T16:20:20.629Z,85.21
2019-01-18T16:22:56.266Z,85.61
2019-01-18T16:25:29.017Z,85.21
2019-01-18T16:27:59.993Z,86.13
2019-01-18T16:30:31.034Z,87.23
2019-01-18T16:33:02.518Z,87.97
2019-01-18T16:35:33.635Z,87.90
2019-01-18T16:38:06.052Z,87.99
2019-01-18T16:40:37.437Z,87.35
2019-01-18T16:43:15.431Z,86.45
2019-01-18T16:45:46.356Z,85.75
2019-01-18T16:48:17.544Z,86.40
2019-01-18T16:50:49.042Z,87.54
2019-01-18T16:53:20.523Z,87.82
2019-01-18T16:55:51.488Z,88.60
2019-01-18T16:58:22.944Z,89.39
2019-01-18T17:00:55.137Z,88.82
2019-01-18T17:03:30.319Z,88.66
2019-01-18T17:05:59.335Z,87.86
2019-01-18T17:08:30.629Z,87.39
2019-01-18T17:11:01.628Z,87.33
2019-01-18T17:13:36.969Z,87.27
2019-01-18T17:16:08.660Z,87.55
2019-01-18T17:18:41.096Z,87.71
2019-01-18T17:21:13.894Z,86.92
2019-01-18T17:23:45.567Z,87.48
2019-01-18T17:26:16.988Z,88.78
2019-01-18T17:28:47.959Z,89.91
2019-01-18T17:31:19.466Z,88.92
2019-01-18T17:33:50.530Z,88.08
2019-01-18T17:36:46.913Z,89.00
2019-01-18T17:39:39.854Z,88.83
2019-01-18T17:42:25.356Z,87.63
2019-01-18T17:45:42.156Z,87.57
2019-01-18T17:48:41.941Z,87.85
2019-01-18T17:51:42.012Z,87.62
2019-01-18T17:54:57.208Z,87.31
2019-01-18T17:58:04.561Z,86.06
2019-01-18T18:01:17.253Z,87.47
2019-01-18T18:04:22.184Z,87.96
2019-01-18T18:07:46.043Z,88.12
2019-01-18T18:10:36.569Z,88.94
2019-01-18T18:13:31.974Z,88.50
2019-01-18T18:16:32.356Z,88.12
2019-01-18T18:19:16.808Z,87.68
2019-01-18T18:22:32.225Z,88.07
2019-01-18T18:25:47.050Z,87.47
2019-01-18T18:29:00.836Z,87.34
2019-01-18T18:32:16.601Z,86.90
2019-01-18T18:35:31.577Z,88.61
2019-01-18T18:38:48.829Z,85.60
2019-01-18T18:41:56.793Z,84.00
2019-01-18T18:45:18.942Z,85.46
2019-01-18T18:48:23.141Z,87.64
2019-01-18T18:51:34.988Z,88.09
2019-01-18T18:55:17.070Z,87.42
2019-01-18T18:58:29.226Z,88.19
2019-01-18T19:01:55.967Z,88.33
2019-01-18T19:04:58.374Z,88.00
2019-01-18T19:08:10.793Z,88.80
2019-01-18T19:11:19.727Z,89.84
2019-01-18T19:14:34.473Z,90.26
2019-01-18T19:17:33.989Z,89.78
2019-01-18T19:20:35.801Z,90.88
2019-01-18T19:23:51.535Z,90.07
2019-01-18T19:27:18.380Z,89.99
2019-01-18T19:30:26.017Z,90.05
2019-01-18T19:33:32.776Z,88.85
2019-01-18T19:36:36.946Z,89.47
2019-01-18T19:39:33.939Z,90.72
2019-01-18T19:42:30.622Z,92.39
2019-01-18T19:45:39.512Z,93.03
2019-01-18T19:48:38.661Z,92.01
2019-01-18T19:51:44.901Z,91.81
2019-01-18T19:54:42.943Z,90.72
2019-01-18T19:57:49.377Z,90.00
2019-01-18T20:00:53.862Z,90.47
2019-01-18T20:03:56.133Z,90.71
2019-01-18T20:06:54.582Z,90.70
2019-01-18T20:10:08.509Z,91.17
2019-01-18T20:13:26.428Z,91.00
2019-01-18T20:16:18.461Z,91.87
2019-01-18T20:19:30.476Z,91.94
2019-01-18T20:22:48.681Z,91.99
2019-01-18T20:26:07.162Z,91.56
2019-01-18T20:29:08.868Z,91.99
2019-01-18T20:32:15.426Z,91.75
2019-01-18T20:35:21.438Z,91.83
2019-01-18T20:38:36.992Z,90.37
2019-01-18T20:41:48.481Z,91.31
2019-01-18T20:44:56.872Z,91.92
2019-01-18T20:48:17.160Z,92.06
2019-01-18T20:51:26.227Z,92.61
2019-01-18T20:54:38.257Z,91.21
2019-01-18T20:57:48.814Z,92.34
2019-01-18T21:00:34.461Z,93.02
2019-01-18T21:03:41.229Z,92.50
2019-01-18T21:06:24.932Z,92.22
2019-01-18T21:09:18.980Z,91.67
2019-01-18T21:12:17.999Z,91.61
2019-01-18T21:15:33.478Z,91.47
2019-01-18T21:18:20.894Z,91.57
2019-01-18T21:21:21.643Z,91.09
2019-01-18T21:24:33.101Z,90.60
2019-01-18T21:27:33.245Z,91.44
2019-01-18T21:30:44.184Z,91.24
2019-01-18T21:33:47.785Z,91.00
2019-01-18T21:36:51.492Z,90.51
2019-01-18T21:39:51.680Z,90.82
2019-01-18T21:43:15.894Z,91.60
2019-01-18T21:46:04.048Z,91.12
2019-01-18T21:49:11.118Z,90.91
2019-01-18T21:52:24.600Z,90.13
2019-01-18T21:55:32.033Z,90.96
2019-01-18T21:59:05.168Z,92.42
2019-01-18T22:01:57.280Z,91.71
2019-01-18T22:05:10.439Z,91.98
2019-01-18T22:08:08.378Z,91.62
2019-01-18T22:11:37.631Z,92.33
2019-01-18T22:14:43.068Z,93.17
2019-01-18T22:18:04.164Z,93.46
2019-01-18T22:21:26.693Z,91.96
2019-01-18T22:24:47.327Z,91.38
2019-01-18T22:27:55.070Z,90.72
2019-01-18T22:31:08.329Z,90.51
2019-01-18T22:34:22.282Z,90.95
2019-01-18T22:37:14.748Z,90.98
2019-01-18T22:40:03.109Z,92.11
2019-01-18T22:43:21.781Z,92.70
2019-01-18T22:46:18.537Z,92.50
2019-01-18T22:49:42.411Z,92.60
2019-01-18T22:52:52.168Z,93.15
2019-01-18T22:55:47.307Z,92.42
2019-01-18T22:58:51.461Z,92.67
2019-01-18T23:02:19.416Z,92.60
2019-01-18T23:05:08.069Z,91.82
2019-01-18T23:08:21.849Z,92.45
2019-01-18T23:11:26.571Z,93.50
2019-01-18T23:14:53.532Z,94.83
2019-01-18T23:18:20.600Z,95.71
2019-01-18T23:21:27.308Z,95.86
2019-01-18T23:24:16.239Z,95.12
2019-01-18T23:27:29.171Z,95.02
2019-01-18T23:30:29.764Z,94.49
2019-01-18T23:33:45.257Z,94.02
2019-01-18T23:36:35.367Z,93.85
2019-01-18T23:39:41.651Z,93.80
2019-01-18T23:42:52.209Z,93.76
2019-01-18T23:46:09.402Z,93.36
2019-01-18T23:49:27.445Z,91.94
2019-01-18T23:52:28.130Z,91.92
2019-01-18T23:55:45.634Z,92.21
2019-01-18T23:58:28.567Z,92.37
